sensor_id;sensor_type;location;lat;lon;timestamp;P1;durP1;ratioP1;P2;durP2;ratioP2
3991;SDS011;2010;48.194;16.394;2023-07-29T00:00:09;2.90;;;2.67;;
3991;SDS011;2010;48.194;16.394;2023-07-29T00:02:40;2.90;;;2.70;;
3991;SDS011;2010;48.194;16.394;2023-07-29T00:05:09;3.13;;;2.93;;
3991;SDS011;2010;48.194;16.394;2023-07-29T00:07:41;3.83;;;3.00;;
3991;SDS011;2010;48.194;16.394;2023-07-29T00:10:12;2.97;;;2.77;;
3991;SDS011;2010;48.194;16.394;2023-07-29T00:12:44;3.77;;;3.50;;
3991;SDS011;2010;48.194;16.394;2023-07-29T00:15:15;2.87;;;2.70;;
3991;SDS011;2010;48.194;16.394;2023-07-29T00:17:47;4.00;;;3.13;;
3991;SDS011;2010;48.194;16.394;2023-07-29T00:20:17;3.40;;;3.20;;
3991;SDS011;2010;48.194;16.394;2023-07-29T00:22:49;5.30;;;3.50;;
3991;SDS011;2010;48.194;16.394;2023-07-29T00:25:21;3.10;;;2.90;;
3991;SDS011;2010;48.194;16.394;2023-07-29T00:27:58;5.03;;;3.07;;
3991;SDS011;2010;48.194;16.394;2023-07-29T00:30:28;3.03;;;2.83;;
3991;SDS011;2010;48.194;16.394;2023-07-29T00:32:59;3.57;;;3.37;;
3991;SDS011;2010;48.194;16.394;2023-07-29T00:35:38;4.10;;;3.30;;
3991;SDS011;2010;48.194;16.394;2023-07-29T00:38:07;3.70;;;3.40;;
3991;SDS011;2010;48.194;16.394;2023-07-29T00:40:53;4.13;;;3.20;;
3991;SDS011;2010;48.194;16.394;2023-07-29T00:43:26;3.30;;;2.70;;
3991;SDS011;2010;48.194;16.394;2023-07-29T00:45:56;3.47;;;3.20;;
3991;SDS011;2010;48.194;16.394;2023-07-29T00:48:31;2.97;;;2.77;;
3991;SDS011;2010;48.194;16.394;2023-07-29T00:51:04;2.80;;;2.60;;
3991;SDS011;2010;48.194;16.394;2023-07-29T00:53:37;2.80;;;2.60;;
3991;SDS011;2010;48.194;16.394;2023-07-29T00:56:13;2.43;;;2.33;;
3991;SDS011;2010;48.194;16.394;2023-07-29T00:58:44;2.90;;;2.70;;
3991;SDS011;2010;48.194;16.394;2023-07-29T01:01:13;3.40;;;3.10;;
3991;SDS011;2010;48.194;16.394;2023-07-29T01:03:52;3.30;;;3.10;;
3991;SDS011;2010;48.194;16.394;2023-07-29T01:06:23;3.10;;;2.90;;
3991;SDS011;2010;48.194;16.394;2023-07-29T01:08:59;3.57;;;3.27;;
3991;SDS011;2010;48.194;16.394;2023-07-29T01:11:36;3.37;;;3.10;;
3991;SDS011;2010;48.194;16.394;2023-07-29T01:14:11;3.73;;;3.40;;
3991;SDS011;2010;48.194;16.394;2023-07-29T01:16:47;4.07;;;3.20;;
3991;SDS011;2010;48.194;16.394;2023-07-29T01:19:36;3.50;;;3.20;;
3991;SDS011;2010;48.194;16.394;2023-07-29T01:22:18;3.30;;;3.03;;
3991;SDS011;2010;48.194;16.394;2023-07-29T01:24:59;3.17;;;2.87;;
3991;SDS011;2010;48.194;16.394;2023-07-29T01:27:33;3.40;;;3.20;;
3991;SDS011;2010;48.194;16.394;2023-07-29T01:30:10;3.50;;;3.20;;
3991;SDS011;2010;48.194;16.394;2023-07-29T01:32:45;4.30;;;2.80;;
3991;SDS011;2010;48.194;16.394;2023-07-29T01:35:24;5.43;;;3.37;;
3991;SDS011;2010;48.194;16.394;2023-07-29T01:37:59;5.07;;;3.00;;
3991;SDS011;2010;48.194;16.394;2023-07-29T01:40:39;3.30;;;3.10;;
3991;SDS011;2010;48.194;16.394;2023-07-29T01:43:08;3.43;;;3.13;;
3991;SDS011;2010;48.194;16.394;2023-07-29T01:45:45;3.20;;;2.90;;
3991;SDS011;2010;48.194;16.394;2023-07-29T01:48:16;3.73;;;3.40;;
3991;SDS011;2010;48.194;16.394;2023-07-29T01:50:50;3.77;;;3.47;;
3991;SDS011;2010;48.194;16.394;2023-07-29T01:53:21;3.93;;;3.63;;
3991;SDS011;2010;48.194;16.394;2023-07-29T01:55:59;3.57;;;3.33;;
3991;SDS011;2010;48.194;16.394;2023-07-29T01:58:39;3.33;;;3.03;;
3991;SDS011;2010;48.194;16.394;2023-07-29T02:01:13;3.13;;;2.83;;
3991;SDS011;2010;48.194;16.394;2023-07-29T02:03:49;3.33;;;3.03;;
3991;SDS011;2010;48.194;16.394;2023-07-29T02:06:24;3.03;;;2.83;;
3991;SDS011;2010;48.194;16.394;2023-07-29T02:09:02;3.80;;;3.50;;
3991;SDS011;2010;48.194;16.394;2023-07-29T02:11:41;3.77;;;3.43;;
3991;SDS011;2010;48.194;16.394;2023-07-29T02:14:10;4.03;;;3.73;;
3991;SDS011;2010;48.194;16.394;2023-07-29T02:16:42;3.60;;;3.07;;
3991;SDS011;2010;48.194;16.394;2023-07-29T02:19:11;2.77;;;2.67;;
3991;SDS011;2010;48.194;16.394;2023-07-29T02:21:42;3.40;;;3.07;;
3991;SDS011;2010;48.194;16.394;2023-07-29T02:24:11;2.90;;;2.70;;
3991;SDS011;2010;48.194;16.394;2023-07-29T02:26:51;3.07;;;2.87;;
3991;SDS011;2010;48.194;16.394;2023-07-29T02:29:23;2.97;;;2.80;;
3991;SDS011;2010;48.194;16.394;2023-07-29T02:31:54;3.20;;;3.00;;
3991;SDS011;2010;48.194;16.394;2023-07-29T02:34:23;3.10;;;2.90;;
3991;SDS011;2010;48.194;16.394;2023-07-29T02:36:52;5.37;;;2.70;;
3991;SDS011;2010;48.194;16.394;2023-07-29T02:39:23;3.23;;;2.93;;
3991;SDS011;2010;48.194;16.394;2023-07-29T02:41:59;2.53;;;2.30;;
3991;SDS011;2010;48.194;16.394;2023-07-29T02:44:28;2.97;;;2.30;;
3991;SDS011;2010;48.194;16.394;2023-07-29T02:46:58;3.10;;;2.80;;
3991;SDS011;2010;48.194;16.394;2023-07-29T02:49:27;2.63;;;2.50;;
3991;SDS011;2010;48.194;16.394;2023-07-29T02:51:59;2.73;;;2.53;;
3991;SDS011;2010;48.194;16.394;2023-07-29T02:54:32;3.03;;;2.83;;
3991;SDS011;2010;48.194;16.394;2023-07-29T02:57:10;3.13;;;2.93;;
3991;SDS011;2010;48.194;16.394;2023-07-29T02:59:49;2.57;;;2.40;;
3991;SDS011;2010;48.194;16.394;2023-07-29T03:02:22;3.30;;;3.00;;
3991;SDS011;2010;48.194;16.394;2023-07-29T03:04:59;2.50;;;2.40;;
3991;SDS011;2010;48.194;16.394;2023-07-29T03:07:38;2.83;;;2.63;;
3991;SDS011;2010;48.194;16.394;2023-07-29T03:10:09;2.17;;;1.97;;
3991;SDS011;2010;48.194;16.394;2023-07-29T03:12:41;3.00;;;2.10;;
3991;SDS011;2010;48.194;16.394;2023-07-29T03:15:18;2.40;;;2.20;;
3991;SDS011;2010;48.194;16.394;2023-07-29T03:17:52;2.60;;;1.90;;
3991;SDS011;2010;48.194;16.394;2023-07-29T03:20:23;2.13;;;1.93;;
3991;SDS011;2010;48.194;16.394;2023-07-29T03:22:56;2.30;;;2.10;;
3991;SDS011;2010;48.194;16.394;2023-07-29T03:25:27;2.83;;;1.93;;
3991;SDS011;2010;48.194;16.394;2023-07-29T03:28:00;2.40;;;2.20;;
3991;SDS011;2010;48.194;16.394;2023-07-29T03:30:33;2.03;;;1.93;;
3991;SDS011;2010;48.194;16.394;2023-07-29T03:33:11;2.10;;;2.00;;
3991;SDS011;2010;48.194;16.394;2023-07-29T03:35:44;2.10;;;2.00;;
3991;SDS011;2010;48.194;16.394;2023-07-29T03:38:16;2.23;;;2.10;;
3991;SDS011;2010;48.194;16.394;2023-07-29T03:40:47;2.40;;;1.77;;
3991;SDS011;2010;48.194;16.394;2023-07-29T03:43:21;2.00;;;1.90;;
3991;SDS011;2010;48.194;16.394;2023-07-29T03:45:55;1.87;;;1.77;;
3991;SDS011;2010;48.194;16.394;2023-07-29T03:48:27;2.50;;;2.30;;
3991;SDS011;2010;48.194;16.394;2023-07-29T03:50:57;2.00;;;1.90;;
3991;SDS011;2010;48.194;16.394;2023-07-29T03:53:27;2.60;;;1.77;;
3991;SDS011;2010;48.194;16.394;2023-07-29T03:56:00;2.13;;;2.03;;
3991;SDS011;2010;48.194;16.394;2023-07-29T03:58:35;2.03;;;1.93;;
3991;SDS011;2010;48.194;16.394;2023-07-29T04:01:11;2.00;;;1.90;;
3991;SDS011;2010;48.194;16.394;2023-07-29T04:03:41;1.83;;;1.60;;
3991;SDS011;2010;48.194;16.394;2023-07-29T04:06:19;2.00;;;1.90;;
3991;SDS011;2010;48.194;16.394;2023-07-29T04:08:49;2.20;;;2.10;;
3991;SDS011;2010;48.194;16.394;2023-07-29T04:11:17;2.10;;;1.90;;
3991;SDS011;2010;48.194;16.394;2023-07-29T04:13:57;3.10;;;2.03;;
3991;SDS011;2010;48.194;16.394;2023-07-29T04:16:26;2.80;;;2.50;;
3991;SDS011;2010;48.194;16.394;2023-07-29T04:18:58;2.73;;;2.53;;
3991;SDS011;2010;48.194;16.394;2023-07-29T04:21:27;2.43;;;2.20;;
3991;SDS011;2010;48.194;16.394;2023-07-29T04:23:57;2.43;;;2.23;;
3991;SDS011;2010;48.194;16.394;2023-07-29T04:26:25;2.33;;;2.23;;
3991;SDS011;2010;48.194;16.394;2023-07-29T04:28:56;2.10;;;2.00;;
3991;SDS011;2010;48.194;16.394;2023-07-29T04:31:27;2.63;;;2.47;;
3991;SDS011;2010;48.194;16.394;2023-07-29T04:33:57;3.40;;;2.57;;
3991;SDS011;2010;48.194;16.394;2023-07-29T04:36:25;2.63;;;2.43;;
3991;SDS011;2010;48.194;16.394;2023-07-29T04:38:55;2.80;;;2.60;;
3991;SDS011;2010;48.194;16.394;2023-07-29T04:41:32;2.37;;;2.17;;
3991;SDS011;2010;48.194;16.394;2023-07-29T04:44:15;2.57;;;2.37;;
3991;SDS011;2010;48.194;16.394;2023-07-29T04:46:45;2.67;;;2.37;;
3991;SDS011;2010;48.194;16.394;2023-07-29T04:49:28;2.77;;;2.57;;
3991;SDS011;2010;48.194;16.394;2023-07-29T04:51:59;2.67;;;2.47;;
3991;SDS011;2010;48.194;16.394;2023-07-29T04:54:29;3.60;;;2.60;;
3991;SDS011;2010;48.194;16.394;2023-07-29T04:57:02;2.37;;;2.27;;
3991;SDS011;2010;48.194;16.394;2023-07-29T04:59:43;2.80;;;2.30;;
3991;SDS011;2010;48.194;16.394;2023-07-29T05:02:14;3.40;;;2.30;;
3991;SDS011;2010;48.194;16.394;2023-07-29T05:04:46;2.83;;;2.50;;
3991;SDS011;2010;48.194;16.394;2023-07-29T05:07:17;2.57;;;2.40;;
3991;SDS011;2010;48.194;16.394;2023-07-29T05:09:47;2.70;;;2.50;;
3991;SDS011;2010;48.194;16.394;2023-07-29T05:12:19;2.83;;;1.73;;
3991;SDS011;2010;48.194;16.394;2023-07-29T05:14:56;3.27;;;2.97;;
3991;SDS011;2010;48.194;16.394;2023-07-29T05:17:34;2.53;;;2.40;;
3991;SDS011;2010;48.194;16.394;2023-07-29T05:20:08;2.37;;;2.23;;
3991;SDS011;2010;48.194;16.394;2023-07-29T05:22:44;2.00;;;1.90;;
3991;SDS011;2010;48.194;16.394;2023-07-29T05:25:14;2.40;;;2.30;;
3991;SDS011;2010;48.194;16.394;2023-07-29T05:27:47;2.53;;;2.33;;
3991;SDS011;2010;48.194;16.394;2023-07-29T05:30:29;1.80;;;1.70;;
3991;SDS011;2010;48.194;16.394;2023-07-29T05:33:06;2.20;;;2.10;;
3991;SDS011;2010;48.194;16.394;2023-07-29T05:35:38;2.37;;;2.23;;
3991;SDS011;2010;48.194;16.394;2023-07-29T05:38:11;2.33;;;2.13;;
3991;SDS011;2010;48.194;16.394;2023-07-29T05:40:43;2.40;;;2.20;;
3991;SDS011;2010;48.194;16.394;2023-07-29T05:43:13;2.37;;;2.27;;
3991;SDS011;2010;48.194;16.394;2023-07-29T05:45:46;3.00;;;2.70;;
3991;SDS011;2010;48.194;16.394;2023-07-29T05:48:20;2.43;;;2.23;;
3991;SDS011;2010;48.194;16.394;2023-07-29T05:50:50;2.40;;;2.20;;
3991;SDS011;2010;48.194;16.394;2023-07-29T05:53:22;2.30;;;2.17;;
3991;SDS011;2010;48.194;16.394;2023-07-29T05:55:51;2.23;;;2.13;;
3991;SDS011;2010;48.194;16.394;2023-07-29T05:58:20;3.87;;;2.20;;
3991;SDS011;2010;48.194;16.394;2023-07-29T06:01:00;2.00;;;1.90;;
3991;SDS011;2010;48.194;16.394;2023-07-29T06:03:32;1.90;;;1.80;;
3991;SDS011;2010;48.194;16.394;2023-07-29T06:06:05;2.43;;;2.23;;
3991;SDS011;2010;48.194;16.394;2023-07-29T06:08:36;2.17;;;2.03;;
3991;SDS011;2010;48.194;16.394;2023-07-29T06:11:12;1.80;;;1.70;;
3991;SDS011;2010;48.194;16.394;2023-07-29T06:13:45;2.00;;;1.90;;
3991;SDS011;2010;48.194;16.394;2023-07-29T06:16:28;2.53;;;1.90;;
3991;SDS011;2010;48.194;16.394;2023-07-29T06:19:02;2.57;;;2.30;;
3991;SDS011;2010;48.194;16.394;2023-07-29T06:21:40;1.97;;;1.87;;
3991;SDS011;2010;48.194;16.394;2023-07-29T06:24:10;2.07;;;1.97;;
3991;SDS011;2010;48.194;16.394;2023-07-29T06:26:38;1.63;;;1.53;;
3991;SDS011;2010;48.194;16.394;2023-07-29T06:29:11;6.33;;;2.13;;
3991;SDS011;2010;48.194;16.394;2023-07-29T06:31:54;1.57;;;1.47;;
3991;SDS011;2010;48.194;16.394;2023-07-29T06:34:24;2.27;;;2.10;;
3991;SDS011;2010;48.194;16.394;2023-07-29T06:37:00;1.70;;;1.60;;
3991;SDS011;2010;48.194;16.394;2023-07-29T06:39:41;1.70;;;1.60;;
3991;SDS011;2010;48.194;16.394;2023-07-29T06:42:17;1.60;;;1.43;;
3991;SDS011;2010;48.194;16.394;2023-07-29T06:44:46;1.40;;;1.30;;
3991;SDS011;2010;48.194;16.394;2023-07-29T06:47:18;1.80;;;1.70;;
3991;SDS011;2010;48.194;16.394;2023-07-29T06:49:53;1.90;;;1.80;;
3991;SDS011;2010;48.194;16.394;2023-07-29T06:52:23;1.57;;;1.47;;
3991;SDS011;2010;48.194;16.394;2023-07-29T06:54:55;2.93;;;1.60;;
3991;SDS011;2010;48.194;16.394;2023-07-29T06:57:32;2.60;;;1.60;;
3991;SDS011;2010;48.194;16.394;2023-07-29T07:00:02;2.00;;;1.80;;
3991;SDS011;2010;48.194;16.394;2023-07-29T07:02:45;3.80;;;1.53;;
3991;SDS011;2010;48.194;16.394;2023-07-29T07:05:13;1.63;;;1.53;;
3991;SDS011;2010;48.194;16.394;2023-07-29T07:07:44;3.43;;;1.73;;
3991;SDS011;2010;48.194;16.394;2023-07-29T07:10:17;1.43;;;1.43;;
3991;SDS011;2010;48.194;16.394;2023-07-29T07:12:47;1.60;;;1.60;;
3991;SDS011;2010;48.194;16.394;2023-07-29T07:15:24;1.70;;;1.60;;
3991;SDS011;2010;48.194;16.394;2023-07-29T07:17:58;2.27;;;2.00;;
3991;SDS011;2010;48.194;16.394;2023-07-29T07:20:28;1.60;;;1.50;;
3991;SDS011;2010;48.194;16.394;2023-07-29T07:23:06;1.87;;;1.77;;
3991;SDS011;2010;48.194;16.394;2023-07-29T07:25:40;2.50;;;1.47;;
3991;SDS011;2010;48.194;16.394;2023-07-29T07:28:10;2.20;;;2.00;;
3991;SDS011;2010;48.194;16.394;2023-07-29T07:30:44;3.50;;;1.73;;
3991;SDS011;2010;48.194;16.394;2023-07-29T07:33:17;1.50;;;1.43;;
3991;SDS011;2010;48.194;16.394;2023-07-29T07:35:53;1.80;;;1.70;;
3991;SDS011;2010;48.194;16.394;2023-07-29T07:38:22;1.80;;;1.70;;
3991;SDS011;2010;48.194;16.394;2023-07-29T07:40:55;1.30;;;1.30;;
3991;SDS011;2010;48.194;16.394;2023-07-29T07:43:28;2.10;;;1.90;;
3991;SDS011;2010;48.194;16.394;2023-07-29T07:46:02;1.30;;;1.30;;
3991;SDS011;2010;48.194;16.394;2023-07-29T07:48:35;2.43;;;1.93;;
3991;SDS011;2010;48.194;16.394;2023-07-29T07:51:09;1.80;;;1.70;;
3991;SDS011;2010;48.194;16.394;2023-07-29T07:53:43;1.50;;;1.40;;
3991;SDS011;2010;48.194;16.394;2023-07-29T07:56:13;1.20;;;1.20;;
3991;SDS011;2010;48.194;16.394;2023-07-29T07:58:44;1.57;;;1.47;;
3991;SDS011;2010;48.194;16.394;2023-07-29T08:01:14;1.73;;;1.63;;
3991;SDS011;2010;48.194;16.394;2023-07-29T08:03:47;2.00;;;1.90;;
3991;SDS011;2010;48.194;16.394;2023-07-29T08:06:16;1.53;;;1.43;;
3991;SDS011;2010;48.194;16.394;2023-07-29T08:08:52;3.00;;;1.40;;
3991;SDS011;2010;48.194;16.394;2023-07-29T08:11:24;1.60;;;1.50;;
3991;SDS011;2010;48.194;16.394;2023-07-29T08:14:00;2.03;;;1.60;;
3991;SDS011;2010;48.194;16.394;2023-07-29T08:16:32;1.83;;;1.43;;
3991;SDS011;2010;48.194;16.394;2023-07-29T08:19:05;1.10;;;1.10;;
3991;SDS011;2010;48.194;16.394;2023-07-29T08:21:37;1.43;;;1.13;;
3991;SDS011;2010;48.194;16.394;2023-07-29T08:24:09;1.90;;;1.63;;
3991;SDS011;2010;48.194;16.394;2023-07-29T08:26:40;1.87;;;1.23;;
3991;SDS011;2010;48.194;16.394;2023-07-29T08:29:09;1.50;;;1.40;;
3991;SDS011;2010;48.194;16.394;2023-07-29T08:31:42;1.30;;;1.30;;
3991;SDS011;2010;48.194;16.394;2023-07-29T08:34:17;1.40;;;1.20;;
3991;SDS011;2010;48.194;16.394;2023-07-29T08:36:49;1.50;;;1.40;;
3991;SDS011;2010;48.194;16.394;2023-07-29T08:39:27;1.00;;;1.00;;
3991;SDS011;2010;48.194;16.394;2023-07-29T08:42:03;2.00;;;1.20;;
3991;SDS011;2010;48.194;16.394;2023-07-29T08:44:38;1.43;;;1.33;;
3991;SDS011;2010;48.194;16.394;2023-07-29T08:47:13;1.00;;;1.00;;
3991;SDS011;2010;48.194;16.394;2023-07-29T08:49:47;1.20;;;1.20;;
3991;SDS011;2010;48.194;16.394;2023-07-29T08:52:24;1.20;;;1.00;;
3991;SDS011;2010;48.194;16.394;2023-07-29T08:55:10;1.00;;;1.00;;
3991;SDS011;2010;48.194;16.394;2023-07-29T08:57:46;1.53;;;1.13;;
3991;SDS011;2010;48.194;16.394;2023-07-29T09:00:18;1.50;;;1.40;;
3991;SDS011;2010;48.194;16.394;2023-07-29T09:02:55;1.30;;;1.20;;
3991;SDS011;2010;48.194;16.394;2023-07-29T09:05:42;1.53;;;1.43;;
3991;SDS011;2010;48.194;16.394;2023-07-29T09:08:12;1.40;;;1.30;;
3991;SDS011;2010;48.194;16.394;2023-07-29T09:10:51;1.30;;;1.20;;
3991;SDS011;2010;48.194;16.394;2023-07-29T09:13:22;1.40;;;1.30;;
3991;SDS011;2010;48.194;16.394;2023-07-29T09:15:54;1.50;;;1.40;;
3991;SDS011;2010;48.194;16.394;2023-07-29T09:18:27;1.50;;;1.40;;
3991;SDS011;2010;48.194;16.394;2023-07-29T09:21:00;1.27;;;1.20;;
3991;SDS011;2010;48.194;16.394;2023-07-29T09:23:38;1.90;;;1.70;;
3991;SDS011;2010;48.194;16.394;2023-07-29T09:26:10;2.30;;;1.47;;
3991;SDS011;2010;48.194;16.394;2023-07-29T09:28:50;1.17;;;1.17;;
3991;SDS011;2010;48.194;16.394;2023-07-29T09:31:28;1.50;;;1.40;;
3991;SDS011;2010;48.194;16.394;2023-07-29T09:34:00;1.17;;;1.17;;
3991;SDS011;2010;48.194;16.394;2023-07-29T09:36:47;1.33;;;1.27;;
3991;SDS011;2010;48.194;16.394;2023-07-29T09:39:22;1.10;;;1.10;;
3991;SDS011;2010;48.194;16.394;2023-07-29T09:41:52;1.43;;;1.33;;
3991;SDS011;2010;48.194;16.394;2023-07-29T09:44:21;1.53;;;1.37;;
3991;SDS011;2010;48.194;16.394;2023-07-29T09:46:50;1.43;;;1.33;;
3991;SDS011;2010;48.194;16.394;2023-07-29T09:49:20;1.27;;;1.27;;
3991;SDS011;2010;48.194;16.394;2023-07-29T09:52:07;1.20;;;1.10;;
3991;SDS011;2010;48.194;16.394;2023-07-29T09:54:39;1.37;;;1.20;;
3991;SDS011;2010;48.194;16.394;2023-07-29T09:57:10;1.40;;;1.40;;
3991;SDS011;2010;48.194;16.394;2023-07-29T09:59:41;1.40;;;1.40;;
3991;SDS011;2010;48.194;16.394;2023-07-29T10:02:14;1.13;;;1.10;;
3991;SDS011;2010;48.194;16.394;2023-07-29T10:04:47;1.60;;;1.20;;
3991;SDS011;2010;48.194;16.394;2023-07-29T10:07:19;1.40;;;1.40;;
3991;SDS011;2010;48.194;16.394;2023-07-29T10:09:54;1.20;;;1.20;;
3991;SDS011;2010;48.194;16.394;2023-07-29T10:12:35;1.70;;;1.47;;
3991;SDS011;2010;48.194;16.394;2023-07-29T10:15:04;1.60;;;1.50;;
3991;SDS011;2010;48.194;16.394;2023-07-29T10:17:43;1.27;;;1.27;;
3991;SDS011;2010;48.194;16.394;2023-07-29T10:20:17;1.30;;;1.30;;
3991;SDS011;2010;48.194;16.394;2023-07-29T10:22:49;2.57;;;1.30;;
3991;SDS011;2010;48.194;16.394;2023-07-29T10:25:22;1.07;;;1.07;;
3991;SDS011;2010;48.194;16.394;2023-07-29T10:28:00;1.20;;;1.20;;
3991;SDS011;2010;48.194;16.394;2023-07-29T10:30:38;1.10;;;1.10;;
3991;SDS011;2010;48.194;16.394;2023-07-29T10:33:18;1.47;;;1.37;;
3991;SDS011;2010;48.194;16.394;2023-07-29T10:35:48;1.30;;;1.20;;
3991;SDS011;2010;48.194;16.394;2023-07-29T10:41:05;1.13;;;1.10;;
3991;SDS011;2010;48.194;16.394;2023-07-29T10:43:41;2.70;;;1.80;;
3991;SDS011;2010;48.194;16.394;2023-07-29T10:46:16;1.93;;;1.50;;
3991;SDS011;2010;48.194;16.394;2023-07-29T10:48:52;1.50;;;1.40;;
3991;SDS011;2010;48.194;16.394;2023-07-29T10:51:24;2.30;;;1.10;;
3991;SDS011;2010;48.194;16.394;2023-07-29T10:54:01;1.17;;;1.17;;
3991;SDS011;2010;48.194;16.394;2023-07-29T10:56:34;1.40;;;1.30;;
3991;SDS011;2010;48.194;16.394;2023-07-29T11:02:06;2.20;;;1.30;;
3991;SDS011;2010;48.194;16.394;2023-07-29T11:04:47;2.50;;;1.63;;
3991;SDS011;2010;48.194;16.394;2023-07-29T11:07:22;1.17;;;1.10;;
3991;SDS011;2010;48.194;16.394;2023-07-29T11:10:03;1.00;;;0.90;;
3991;SDS011;2010;48.194;16.394;2023-07-29T11:15:30;0.93;;;0.93;;
3991;SDS011;2010;48.194;16.394;2023-07-29T11:18:03;1.40;;;1.30;;
3991;SDS011;2010;48.194;16.394;2023-07-29T11:20:36;1.40;;;1.30;;
3991;SDS011;2010;48.194;16.394;2023-07-29T11:23:10;1.67;;;1.30;;
3991;SDS011;2010;48.194;16.394;2023-07-29T11:25:44;1.20;;;1.17;;
3991;SDS011;2010;48.194;16.394;2023-07-29T11:28:19;1.73;;;1.63;;
3991;SDS011;2010;48.194;16.394;2023-07-29T11:30:50;1.30;;;1.23;;
3991;SDS011;2010;48.194;16.394;2023-07-29T11:33:19;2.80;;;1.47;;
3991;SDS011;2010;48.194;16.394;2023-07-29T11:35:51;1.63;;;1.10;;
3991;SDS011;2010;48.194;16.394;2023-07-29T11:38:22;1.30;;;1.20;;
3991;SDS011;2010;48.194;16.394;2023-07-29T11:41:01;1.77;;;1.63;;
3991;SDS011;2010;48.194;16.394;2023-07-29T11:43:34;1.80;;;1.70;;
3991;SDS011;2010;48.194;16.394;2023-07-29T11:46:04;1.17;;;1.17;;
3991;SDS011;2010;48.194;16.394;2023-07-29T11:48:35;1.13;;;1.13;;
3991;SDS011;2010;48.194;16.394;2023-07-29T11:51:05;1.70;;;1.60;;
3991;SDS011;2010;48.194;16.394;2023-07-29T11:53:38;1.50;;;1.40;;
3991;SDS011;2010;48.194;16.394;2023-07-29T11:56:22;1.37;;;1.37;;
3991;SDS011;2010;48.194;16.394;2023-07-29T11:58:53;2.00;;;1.50;;
3991;SDS011;2010;48.194;16.394;2023-07-29T12:01:25;1.63;;;1.53;;
3991;SDS011;2010;48.194;16.394;2023-07-29T12:04:01;1.30;;;1.30;;
3991;SDS011;2010;48.194;16.394;2023-07-29T12:06:30;3.27;;;2.80;;
3991;SDS011;2010;48.194;16.394;2023-07-29T12:08:59;2.43;;;2.10;;
3991;SDS011;2010;48.194;16.394;2023-07-29T12:11:30;1.90;;;1.80;;
3991;SDS011;2010;48.194;16.394;2023-07-29T12:14:02;1.20;;;1.20;;
3991;SDS011;2010;48.194;16.394;2023-07-29T12:16:31;1.30;;;1.20;;
3991;SDS011;2010;48.194;16.394;2023-07-29T12:19:11;1.40;;;1.30;;
3991;SDS011;2010;48.194;16.394;2023-07-29T12:21:52;2.40;;;1.43;;
3991;SDS011;2010;48.194;16.394;2023-07-29T12:24:22;1.43;;;1.33;;
3991;SDS011;2010;48.194;16.394;2023-07-29T12:26:55;1.20;;;1.20;;
3991;SDS011;2010;48.194;16.394;2023-07-29T12:29:27;1.80;;;1.33;;
3991;SDS011;2010;48.194;16.394;2023-07-29T12:32:03;1.50;;;1.40;;
3991;SDS011;2010;48.194;16.394;2023-07-29T12:34:37;1.50;;;1.50;;
3991;SDS011;2010;48.194;16.394;2023-07-29T12:37:15;1.97;;;1.70;;
3991;SDS011;2010;48.194;16.394;2023-07-29T12:39:54;1.40;;;1.40;;
3991;SDS011;2010;48.194;16.394;2023-07-29T12:42:31;3.00;;;1.83;;
3991;SDS011;2010;48.194;16.394;2023-07-29T12:45:02;3.97;;;1.57;;
3991;SDS011;2010;48.194;16.394;2023-07-29T12:47:31;1.50;;;1.50;;
3991;SDS011;2010;48.194;16.394;2023-07-29T12:50:03;1.77;;;1.67;;
3991;SDS011;2010;48.194;16.394;2023-07-29T12:52:43;1.70;;;1.60;;
3991;SDS011;2010;48.194;16.394;2023-07-29T12:55:17;2.00;;;1.77;;
3991;SDS011;2010;48.194;16.394;2023-07-29T12:57:54;2.47;;;2.27;;
3991;SDS011;2010;48.194;16.394;2023-07-29T13:00:29;1.80;;;1.70;;
3991;SDS011;2010;48.194;16.394;2023-07-29T13:02:59;1.70;;;1.60;;
3991;SDS011;2010;48.194;16.394;2023-07-29T13:05:42;2.70;;;1.83;;
3991;SDS011;2010;48.194;16.394;2023-07-29T13:08:19;1.67;;;1.57;;
3991;SDS011;2010;48.194;16.394;2023-07-29T13:10:51;4.40;;;1.43;;
3991;SDS011;2010;48.194;16.394;2023-07-29T13:13:21;1.50;;;1.40;;
3991;SDS011;2010;48.194;16.394;2023-07-29T13:15:55;1.57;;;1.47;;
3991;SDS011;2010;48.194;16.394;2023-07-29T13:18:31;1.57;;;1.20;;
3991;SDS011;2010;48.194;16.394;2023-07-29T13:21:02;1.37;;;1.33;;
3991;SDS011;2010;48.194;16.394;2023-07-29T13:23:33;1.47;;;1.37;;
3991;SDS011;2010;48.194;16.394;2023-07-29T13:26:11;1.70;;;1.60;;
3991;SDS011;2010;48.194;16.394;2023-07-29T13:28:46;2.03;;;1.30;;
3991;SDS011;2010;48.194;16.394;2023-07-29T13:31:26;1.73;;;1.63;;
3991;SDS011;2010;48.194;16.394;2023-07-29T13:34:10;1.57;;;1.47;;
3991;SDS011;2010;48.194;16.394;2023-07-29T13:36:49;1.70;;;1.57;;
3991;SDS011;2010;48.194;16.394;2023-07-29T13:39:24;1.63;;;1.53;;
3991;SDS011;2010;48.194;16.394;2023-07-29T13:42:00;1.50;;;1.40;;
3991;SDS011;2010;48.194;16.394;2023-07-29T13:44:38;3.67;;;1.47;;
3991;SDS011;2010;48.194;16.394;2023-07-29T13:47:11;1.60;;;1.50;;
3991;SDS011;2010;48.194;16.394;2023-07-29T13:49:49;1.50;;;1.40;;
3991;SDS011;2010;48.194;16.394;2023-07-29T13:52:23;1.90;;;1.57;;
3991;SDS011;2010;48.194;16.394;2023-07-29T13:54:59;1.60;;;1.50;;
3991;SDS011;2010;48.194;16.394;2023-07-29T13:57:28;1.60;;;1.60;;
3991;SDS011;2010;48.194;16.394;2023-07-29T14:00:12;2.00;;;1.80;;
3991;SDS011;2010;48.194;16.394;2023-07-29T14:02:46;1.57;;;1.47;;
3991;SDS011;2010;48.194;16.394;2023-07-29T14:05:17;1.83;;;1.50;;
3991;SDS011;2010;48.194;16.394;2023-07-29T14:07:47;1.63;;;1.53;;
3991;SDS011;2010;48.194;16.394;2023-07-29T14:10:19;1.73;;;1.53;;
3991;SDS011;2010;48.194;16.394;2023-07-29T14:12:52;2.90;;;1.63;;
3991;SDS011;2010;48.194;16.394;2023-07-29T14:15:25;2.27;;;2.17;;
3991;SDS011;2010;48.194;16.394;2023-07-29T14:18:03;2.93;;;2.73;;
3991;SDS011;2010;48.194;16.394;2023-07-29T14:20:35;2.53;;;2.43;;
3991;SDS011;2010;48.194;16.394;2023-07-29T14:23:08;4.93;;;4.53;;
3991;SDS011;2010;48.194;16.394;2023-07-29T14:25:38;2.70;;;2.50;;
3991;SDS011;2010;48.194;16.394;2023-07-29T14:28:09;2.13;;;1.90;;
3991;SDS011;2010;48.194;16.394;2023-07-29T14:30:43;1.87;;;1.77;;
3991;SDS011;2010;48.194;16.394;2023-07-29T14:33:12;1.73;;;1.63;;
3991;SDS011;2010;48.194;16.394;2023-07-29T14:35:47;2.20;;;2.10;;
3991;SDS011;2010;48.194;16.394;2023-07-29T14:38:17;2.00;;;1.90;;
3991;SDS011;2010;48.194;16.394;2023-07-29T14:40:51;2.10;;;1.93;;
3991;SDS011;2010;48.194;16.394;2023-07-29T14:43:24;1.20;;;1.20;;
3991;SDS011;2010;48.194;16.394;2023-07-29T14:46:02;1.67;;;1.57;;
3991;SDS011;2010;48.194;16.394;2023-07-29T14:48:31;8.97;;;1.90;;
3991;SDS011;2010;48.194;16.394;2023-07-29T14:51:03;2.23;;;2.03;;
3991;SDS011;2010;48.194;16.394;2023-07-29T14:53:34;2.10;;;2.00;;
3991;SDS011;2010;48.194;16.394;2023-07-29T14:56:04;3.90;;;2.53;;
3991;SDS011;2010;48.194;16.394;2023-07-29T14:58:32;1.50;;;1.50;;
3991;SDS011;2010;48.194;16.394;2023-07-29T15:01:12;1.93;;;1.83;;
3991;SDS011;2010;48.194;16.394;2023-07-29T15:03:48;1.97;;;1.80;;
3991;SDS011;2010;48.194;16.394;2023-07-29T15:06:18;1.80;;;1.70;;
3991;SDS011;2010;48.194;16.394;2023-07-29T15:08:46;2.03;;;1.93;;
3991;SDS011;2010;48.194;16.394;2023-07-29T15:11:24;2.90;;;2.33;;
3991;SDS011;2010;48.194;16.394;2023-07-29T15:13:53;2.07;;;1.97;;
3991;SDS011;2010;48.194;16.394;2023-07-29T15:16:24;1.80;;;1.80;;
3991;SDS011;2010;48.194;16.394;2023-07-29T15:18:55;1.60;;;1.50;;
3991;SDS011;2010;48.194;16.394;2023-07-29T15:21:27;2.13;;;2.00;;
3991;SDS011;2010;48.194;16.394;2023-07-29T15:24:06;2.13;;;2.03;;
3991;SDS011;2010;48.194;16.394;2023-07-29T15:26:35;2.30;;;2.10;;
3991;SDS011;2010;48.194;16.394;2023-07-29T15:29:19;3.33;;;2.67;;
3991;SDS011;2010;48.194;16.394;2023-07-29T15:31:59;2.40;;;2.30;;
3991;SDS011;2010;48.194;16.394;2023-07-29T15:34:36;3.10;;;2.80;;
3991;SDS011;2010;48.194;16.394;2023-07-29T15:37:06;5.73;;;2.50;;
3991;SDS011;2010;48.194;16.394;2023-07-29T15:39:43;2.57;;;2.37;;
3991;SDS011;2010;48.194;16.394;2023-07-29T15:42:16;2.50;;;2.30;;
3991;SDS011;2010;48.194;16.394;2023-07-29T15:44:46;5.20;;;2.10;;
3991;SDS011;2010;48.194;16.394;2023-07-29T15:47:19;2.40;;;2.30;;